createdAt,value
2022-12-12T00:02:17.849Z,5.80
2022-12-12T00:04:46.353Z,5.57
2022-12-12T00:07:14.756Z,5.43
2022-12-12T00:09:43.216Z,5.47
2022-12-12T00:12:11.638Z,4.70
2022-12-12T00:14:40.103Z,4.73
2022-12-12T00:17:08.585Z,4.37
2022-12-12T00:19:38.337Z,5.33
2022-12-12T00:22:06.714Z,5.67
2022-12-12T00:24:35.104Z,5.33
2022-12-12T00:27:03.833Z,4.27
2022-12-12T00:29:32.293Z,5.47
2022-12-12T00:32:00.718Z,5.33
2022-12-12T00:34:29.149Z,5.77
2022-12-12T00:36:58.927Z,5.80
2022-12-12T00:39:27.296Z,6.43
2022-12-12T00:41:55.690Z,5.80
2022-12-12T00:44:24.092Z,6.60
2022-12-12T00:46:52.553Z,5.20
2022-12-12T00:49:21.021Z,5.77
2022-12-12T00:51:49.484Z,5.80
2022-12-12T00:54:19.313Z,6.40
2022-12-12T00:56:47.686Z,5.80
2022-12-12T00:59:16.075Z,4.50
2022-12-12T01:01:46.832Z,3.00
2022-12-12T01:04:15.307Z,3.63
2022-12-12T01:06:43.724Z,3.63
2022-12-12T01:09:12.138Z,3.97
2022-12-12T01:11:41.935Z,4.33
2022-12-12T01:14:10.351Z,4.40
2022-12-12T01:16:38.791Z,4.43
2022-12-12T01:19:07.169Z,4.53
2022-12-12T01:21:35.631Z,5.00
2022-12-12T01:24:04.030Z,4.77
2022-12-12T01:26:32.421Z,4.63
2022-12-12T01:29:02.177Z,4.97
2022-12-12T01:31:30.581Z,4.73
2022-12-12T01:33:59.084Z,4.47
2022-12-12T01:36:27.529Z,4.77
2022-12-12T01:38:57.476Z,4.03
2022-12-12T01:41:26.176Z,5.43
2022-12-12T01:43:54.937Z,5.10
2022-12-12T01:46:41.187Z,4.63
2022-12-12T01:49:13.421Z,5.10
2022-12-12T01:51:42.447Z,4.70
2022-12-12T01:54:12.820Z,5.00
2022-12-12T01:56:41.801Z,5.10
2022-12-12T01:59:12.866Z,5.00
2022-12-12T02:01:42.950Z,5.37
2022-12-12T02:04:11.945Z,5.10
2022-12-12T02:06:40.806Z,4.87
2022-12-12T02:09:10.492Z,5.67
2022-12-12T02:11:43.258Z,5.33
2022-12-12T02:14:11.728Z,5.13
2022-12-12T02:16:52.290Z,5.53
2022-12-12T02:19:33.069Z,4.70
2022-12-12T02:22:04.969Z,4.83
2022-12-12T02:25:03.463Z,4.87
2022-12-12T02:27:42.738Z,4.67
2022-12-12T02:30:14.546Z,4.60
2022-12-12T02:32:52.446Z,4.60
2022-12-12T02:35:22.857Z,4.90
2022-12-12T02:37:53.355Z,5.00
2022-12-12T02:40:24.764Z,4.97
2022-12-12T02:42:57.596Z,4.63
2022-12-12T02:45:32.043Z,6.00
2022-12-12T02:48:05.617Z,5.87
2022-12-12T02:50:34.918Z,4.87
2022-12-12T02:53:03.275Z,4.00
2022-12-12T02:55:36.246Z,4.17
2022-12-12T02:58:06.852Z,4.50
2022-12-12T03:00:40.653Z,4.43
2022-12-12T03:03:56.518Z,4.13
2022-12-12T03:06:50.859Z,5.17
2022-12-12T03:09:25.150Z,5.00
2022-12-12T03:12:01.278Z,4.53
2022-12-12T03:14:35.919Z,4.17
2022-12-12T03:17:08.501Z,4.33
2022-12-12T03:19:41.715Z,4.60
2022-12-12T03:22:13.409Z,4.07
2022-12-12T03:24:45.897Z,4.30
2022-12-12T03:27:16.321Z,4.27
2022-12-12T03:29:46.587Z,3.87
2022-12-12T03:32:17.180Z,4.10
2022-12-12T03:34:49.440Z,4.00
2022-12-12T03:37:21.215Z,4.27
2022-12-12T03:39:51.854Z,4.43
2022-12-12T03:42:23.215Z,4.30
2022-12-12T03:44:53.298Z,5.90
2022-12-12T03:47:24.809Z,8.90
2022-12-12T03:49:56.620Z,9.30
2022-12-12T03:52:26.982Z,7.80
2022-12-12T03:54:57.502Z,6.77
2022-12-12T03:57:29.107Z,6.93
2022-12-12T04:00:00.982Z,7.03
2022-12-12T04:02:32.470Z,6.80
2022-12-12T04:05:05.366Z,5.47
2022-12-12T04:07:35.430Z,4.27
2022-12-12T04:10:20.786Z,4.63
2022-12-12T04:13:03.407Z,4.50
2022-12-12T04:15:47.363Z,4.10
2022-12-12T04:18:18.118Z,3.57
2022-12-12T04:21:07.752Z,3.93
2022-12-12T04:23:38.425Z,4.13
2022-12-12T04:26:27.614Z,4.10
2022-12-12T04:29:03.847Z,3.97
2022-12-12T04:31:33.408Z,4.30
2022-12-12T04:34:04.373Z,4.40
2022-12-12T04:36:35.594Z,5.83
2022-12-12T04:39:05.459Z,5.57
2022-12-12T04:41:34.344Z,5.47
2022-12-12T04:44:03.839Z,5.00
2022-12-12T04:46:33.367Z,4.50
2022-12-12T04:49:04.724Z,3.90
2022-12-12T04:51:35.434Z,3.93
2022-12-12T04:54:06.969Z,3.87
2022-12-12T04:56:36.163Z,3.27
2022-12-12T04:59:04.804Z,3.47
2022-12-12T05:01:37.263Z,3.80
2022-12-12T05:04:09.690Z,3.37
2022-12-12T05:06:42.444Z,4.23
2022-12-12T05:09:11.839Z,45.50
2022-12-12T05:11:40.284Z,8.20
2022-12-12T05:14:10.016Z,5.23
2022-12-12T05:16:40.178Z,4.40
2022-12-12T05:19:08.618Z,3.90
2022-12-12T05:21:37.001Z,4.60
2022-12-12T05:24:07.277Z,5.03
2022-12-12T05:26:36.025Z,5.53
2022-12-12T05:29:07.478Z,6.03
2022-12-12T05:31:36.277Z,6.33
2022-12-12T05:34:04.820Z,7.73
2022-12-12T05:36:33.209Z,7.97
2022-12-12T05:39:01.657Z,8.13
2022-12-12T05:41:31.449Z,6.63
2022-12-12T05:43:59.849Z,7.50
2022-12-12T05:46:28.328Z,7.20
2022-12-12T05:48:56.905Z,6.93
2022-12-12T05:51:25.345Z,7.13
2022-12-12T05:53:53.784Z,8.80
2022-12-12T05:56:22.281Z,8.00
2022-12-12T05:58:52.079Z,8.00
2022-12-12T06:01:20.506Z,8.23
2022-12-12T06:03:49.110Z,7.30
2022-12-12T06:06:17.548Z,7.00
2022-12-12T06:08:45.953Z,7.33
2022-12-12T06:11:14.421Z,7.37
2022-12-12T06:13:42.825Z,7.73
2022-12-12T06:16:14.651Z,15.37
2022-12-12T06:18:43.139Z,18.97
2022-12-12T06:21:12.522Z,8.73
2022-12-12T06:23:41.754Z,8.57
2022-12-12T06:26:11.442Z,7.40
2022-12-12T06:28:39.985Z,6.43
2022-12-12T06:31:11.901Z,6.40
2022-12-12T06:33:42.614Z,6.53
2022-12-12T06:36:12.814Z,6.77
2022-12-12T06:38:41.263Z,9.67
2022-12-12T06:41:10.149Z,9.20
2022-12-12T06:43:38.638Z,9.27
2022-12-12T06:46:08.061Z,9.07
2022-12-12T06:48:36.858Z,8.20
2022-12-12T06:51:09.088Z,8.90
2022-12-12T06:53:37.795Z,9.37
2022-12-12T06:56:07.715Z,9.80
2022-12-12T06:58:36.177Z,6.50
2022-12-12T07:01:04.590Z,4.40
2022-12-12T07:03:33.064Z,4.20
2022-12-12T07:06:01.583Z,3.90
2022-12-12T07:08:31.428Z,3.90
2022-12-12T07:11:04.521Z,3.60
2022-12-12T07:13:33.088Z,4.20
2022-12-12T07:16:01.568Z,4.20
2022-12-12T07:18:30.133Z,4.97
2022-12-12T07:20:58.607Z,5.27
2022-12-12T07:23:27.362Z,5.40
2022-12-12T07:25:57.126Z,4.87
2022-12-12T07:28:25.564Z,5.67
2022-12-12T07:30:54.124Z,5.40
2022-12-12T07:33:22.678Z,5.50
2022-12-12T07:35:51.099Z,5.10
2022-12-12T07:38:19.585Z,5.57
2022-12-12T07:40:47.937Z,5.67
2022-12-12T07:43:17.688Z,5.13
2022-12-12T07:45:46.127Z,5.87
2022-12-12T07:48:14.902Z,5.70
2022-12-12T07:50:44.281Z,5.60
2022-12-12T07:53:12.625Z,6.63
2022-12-12T07:55:41.882Z,6.37
2022-12-12T07:58:10.300Z,7.50
2022-12-12T08:00:40.101Z,6.50
2022-12-12T08:03:08.534Z,7.40
2022-12-12T08:05:36.907Z,7.17
2022-12-12T08:08:05.392Z,8.33
2022-12-12T08:10:33.935Z,9.43
2022-12-12T08:13:02.358Z,7.53
2022-12-12T08:15:30.774Z,6.57
2022-12-12T08:18:00.625Z,6.27
2022-12-12T08:20:29.076Z,7.07
2022-12-12T08:22:57.488Z,7.30
2022-12-12T08:25:25.937Z,5.53
2022-12-12T08:27:54.405Z,6.30
2022-12-12T08:30:22.991Z,6.47
2022-12-12T08:32:51.387Z,5.20
2022-12-12T08:35:21.267Z,5.20
2022-12-12T08:37:49.642Z,4.70
2022-12-12T08:40:18.207Z,62.67
2022-12-12T08:42:46.611Z,9.80
2022-12-12T08:45:15.390Z,6.33
2022-12-12T08:47:43.905Z,6.40
2022-12-12T08:50:13.165Z,5.83
2022-12-12T08:52:42.930Z,5.37
2022-12-12T08:55:11.795Z,5.83
2022-12-12T08:57:40.529Z,5.97
2022-12-12T09:00:09.488Z,6.50
2022-12-12T09:02:38.074Z,6.60
2022-12-12T09:05:06.957Z,5.80
2022-12-12T09:07:35.343Z,6.70
2022-12-12T09:10:06.408Z,5.90
2022-12-12T09:12:39.946Z,6.37
2022-12-12T09:15:10.622Z,6.67
2022-12-12T09:17:39.315Z,6.17
2022-12-12T09:20:08.214Z,6.37
2022-12-12T09:22:36.658Z,6.87
2022-12-12T09:25:06.830Z,7.13
2022-12-12T09:27:35.271Z,7.13
2022-12-12T09:30:03.704Z,7.77
2022-12-12T09:32:32.085Z,7.33
2022-12-12T09:35:00.456Z,7.37
2022-12-12T09:37:29.490Z,7.43
2022-12-12T09:39:58.158Z,8.60
2022-12-12T09:42:29.495Z,7.80
2022-12-12T09:45:00.428Z,7.40
2022-12-12T09:47:33.787Z,7.63
2022-12-12T09:50:04.078Z,7.30
2022-12-12T09:52:34.111Z,7.50
2022-12-12T09:55:02.966Z,8.00
2022-12-12T09:57:35.343Z,7.80
2022-12-12T10:00:08.054Z,8.83
2022-12-12T10:02:43.274Z,8.33
2022-12-12T10:05:18.847Z,8.50
2022-12-12T10:07:49.164Z,8.63
2022-12-12T10:10:23.292Z,9.07
2022-12-12T10:12:54.590Z,8.40
2022-12-12T10:15:27.285Z,8.00
2022-12-12T10:17:57.332Z,8.97
2022-12-12T10:20:26.936Z,8.47
2022-12-12T10:22:58.401Z,8.00
2022-12-12T10:25:30.516Z,8.97
2022-12-12T10:28:06.684Z,9.43
2022-12-12T10:30:36.374Z,9.10
2022-12-12T10:33:13.763Z,10.10
2022-12-12T10:35:46.232Z,8.93
2022-12-12T10:38:22.030Z,9.10
2022-12-12T10:40:55.012Z,9.23
2022-12-12T10:43:26.108Z,53.87
2022-12-12T10:46:01.372Z,12.87
2022-12-12T10:48:30.585Z,9.37
2022-12-12T10:51:01.157Z,8.70
2022-12-12T10:53:30.901Z,9.00
2022-12-12T10:56:01.189Z,10.07
2022-12-12T10:58:37.983Z,8.90
2022-12-12T11:01:12.153Z,9.47
2022-12-12T11:03:42.665Z,8.80
2022-12-12T11:06:16.455Z,9.67
2022-12-12T11:08:54.989Z,9.27
2022-12-12T11:11:24.102Z,9.13
2022-12-12T11:13:54.810Z,8.53
2022-12-12T11:16:24.403Z,8.57
2022-12-12T11:19:05.095Z,9.00
2022-12-12T11:21:34.657Z,8.90
2022-12-12T11:24:06.671Z,9.47
2022-12-12T11:26:40.742Z,9.97
2022-12-12T11:29:23.006Z,10.60
2022-12-12T11:31:51.540Z,10.47
2022-12-12T11:34:20.502Z,9.77
2022-12-12T11:36:49.071Z,10.47
2022-12-12T11:39:19.912Z,10.70
2022-12-12T11:42:02.018Z,10.53
2022-12-12T11:44:35.339Z,10.70
2022-12-12T11:47:18.572Z,11.87
2022-12-12T11:49:48.197Z,10.70
2022-12-12T11:52:20.372Z,11.80
2022-12-12T11:54:49.081Z,12.33
2022-12-12T11:57:21.063Z,11.70
2022-12-12T11:59:55.886Z,12.10
2022-12-12T12:02:53.456Z,11.13
2022-12-12T12:05:26.996Z,12.20
2022-12-12T12:08:11.758Z,12.07
2022-12-12T12:10:44.782Z,12.47
2022-12-12T12:13:18.625Z,13.23
2022-12-12T12:15:51.325Z,12.53
2022-12-12T12:18:29.658Z,13.57
2022-12-12T12:21:07.162Z,13.43
2022-12-12T12:23:42.600Z,15.00
2022-12-12T12:26:15.740Z,15.73
2022-12-12T12:29:02.049Z,15.77
2022-12-12T12:31:37.305Z,15.87
2022-12-12T12:34:10.527Z,15.07
2022-12-12T12:36:45.464Z,14.47
2022-12-12T12:39:19.290Z,16.20
2022-12-12T12:42:00.282Z,15.50
2022-12-12T12:44:33.191Z,14.17
2022-12-12T12:47:09.335Z,13.73
2022-12-12T12:49:40.796Z,13.97
2022-12-12T12:52:11.948Z,13.67
2022-12-12T12:54:41.378Z,12.23
2022-12-12T12:57:16.608Z,13.30
2022-12-12T12:59:47.258Z,16.30
2022-12-12T13:02:26.716Z,16.13
2022-12-12T13:04:59.090Z,13.03
2022-12-12T13:07:31.513Z,11.77
2022-12-12T13:10:02.935Z,11.67
2022-12-12T13:12:32.343Z,12.33
2022-12-12T13:15:02.837Z,11.17
2022-12-12T13:17:39.075Z,11.83
2022-12-12T13:20:12.013Z,12.93
2022-12-12T13:22:48.991Z,12.37
2022-12-12T13:25:23.314Z,11.50
2022-12-12T13:27:54.819Z,14.50
2022-12-12T13:30:24.295Z,15.80
2022-12-12T13:33:07.578Z,13.47
2022-12-12T13:35:38.633Z,11.00
2022-12-12T13:38:07.040Z,10.77
2022-12-12T13:40:40.628Z,11.17
2022-12-12T13:43:10.490Z,12.27
2022-12-12T13:45:43.962Z,10.83
2022-12-12T13:48:44.528Z,17.53
2022-12-12T13:51:35.951Z,13.60
2022-12-12T13:54:22.830Z,14.93
2022-12-12T13:57:07.409Z,12.27
2022-12-12T13:59:59.182Z,13.40
2022-12-12T14:02:32.424Z,22.30
2022-12-12T14:05:10.394Z,14.60
2022-12-12T14:07:40.805Z,15.60
2022-12-12T14:10:19.206Z,14.70
2022-12-12T14:12:47.667Z,19.60
2022-12-12T14:15:23.638Z,17.43
2022-12-12T14:17:54.809Z,21.40
2022-12-12T14:20:26.919Z,12.73
2022-12-12T14:23:25.569Z,19.00
2022-12-12T14:25:55.465Z,21.97
2022-12-12T14:28:26.086Z,15.97
2022-12-12T14:30:57.381Z,12.07
2022-12-12T14:33:49.494Z,9.80
2022-12-12T14:36:30.436Z,11.30
2022-12-12T14:39:05.186Z,13.77
2022-12-12T14:41:36.393Z,11.77
2022-12-12T14:44:35.686Z,28.20
2022-12-12T14:47:00.220Z,14.07
2022-12-12T14:49:28.614Z,10.47
2022-12-12T14:51:59.267Z,10.87
2022-12-12T14:54:28.382Z,10.90
2022-12-12T14:56:59.690Z,9.80
2022-12-12T14:59:29.372Z,11.80
2022-12-12T15:01:58.946Z,11.03
2022-12-12T15:04:29.104Z,9.63
2022-12-12T15:06:58.438Z,10.33
2022-12-12T15:09:29.507Z,17.93
2022-12-12T15:12:13.787Z,13.73
2022-12-12T15:14:42.957Z,14.50
2022-12-12T15:17:15.446Z,11.90
2022-12-12T15:19:45.081Z,16.47
2022-12-12T15:22:16.035Z,19.17
2022-12-12T15:24:44.456Z,32.83
2022-12-12T15:27:19.590Z,24.33
2022-12-12T15:29:48.028Z,19.47
2022-12-12T15:32:19.593Z,31.33
2022-12-12T15:34:48.876Z,16.27
2022-12-12T15:37:21.840Z,14.10
2022-12-12T15:40:18.643Z,12.70
2022-12-12T15:42:49.367Z,12.07
2022-12-12T15:45:20.017Z,11.03
2022-12-12T15:47:48.533Z,10.97
2022-12-12T15:50:18.467Z,11.90
2022-12-12T15:52:47.682Z,10.57
2022-12-12T15:55:20.334Z,12.27
2022-12-12T15:57:51.474Z,12.50
2022-12-12T16:00:30.296Z,14.53
2022-12-12T16:02:59.417Z,13.67
2022-12-12T16:05:31.326Z,12.60
2022-12-12T16:08:14.687Z,12.23
2022-12-12T16:10:52.312Z,11.87
2022-12-12T16:13:26.355Z,13.70
2022-12-12T16:15:54.801Z,13.77
2022-12-12T16:18:25.191Z,11.90
2022-12-12T16:20:54.932Z,10.90
2022-12-12T16:23:28.571Z,12.63
2022-12-12T16:25:57.043Z,14.27
2022-12-12T16:28:28.796Z,14.70
2022-12-12T16:30:58.570Z,14.37
2022-12-12T16:33:31.435Z,15.17
2022-12-12T16:36:01.061Z,14.47
2022-12-12T16:38:29.752Z,13.50
2022-12-12T16:40:59.781Z,16.13
2022-12-12T16:43:29.606Z,14.63
2022-12-12T16:45:58.544Z,13.60
2022-12-12T16:48:28.082Z,14.57
2022-12-12T16:50:58.490Z,13.53
2022-12-12T16:53:27.231Z,13.63
2022-12-12T16:55:55.763Z,13.23
2022-12-12T16:58:24.434Z,14.50
2022-12-12T17:00:55.133Z,12.90
2022-12-12T17:03:24.536Z,13.47
2022-12-12T17:05:53.313Z,13.90
2022-12-12T17:08:21.942Z,15.00
2022-12-12T17:10:52.332Z,16.10
2022-12-12T17:13:38.136Z,16.23
2022-12-12T17:16:08.357Z,15.50
2022-12-12T17:18:36.801Z,17.97
2022-12-12T17:21:05.362Z,16.47
2022-12-12T17:23:33.781Z,15.87
2022-12-12T17:26:04.567Z,16.43
2022-12-12T17:28:33.634Z,16.17
2022-12-12T17:31:02.079Z,16.63
2022-12-12T17:33:31.898Z,16.10
2022-12-12T17:36:01.159Z,18.37
2022-12-12T17:38:30.545Z,20.30
2022-12-12T17:40:59.302Z,21.80
2022-12-12T17:43:28.006Z,24.57
2022-12-12T17:46:00.433Z,24.17
2022-12-12T17:48:30.028Z,23.10
2022-12-12T17:51:01.173Z,20.03
2022-12-12T17:53:32.547Z,17.40
2022-12-12T17:56:07.813Z,16.63
2022-12-12T17:58:37.416Z,18.07
2022-12-12T18:01:10.882Z,17.47
2022-12-12T18:03:39.402Z,17.30
2022-12-12T18:06:09.311Z,16.87
2022-12-12T18:08:37.728Z,16.87
2022-12-12T18:11:07.771Z,16.63
2022-12-12T18:13:36.298Z,18.37
2022-12-12T18:16:04.791Z,20.30
2022-12-12T18:18:34.193Z,19.33
2022-12-12T18:21:04.708Z,18.00
2022-12-12T18:23:34.933Z,17.83
2022-12-12T18:26:06.630Z,18.70
2022-12-12T18:28:35.219Z,18.10
2022-12-12T18:31:03.672Z,16.13
2022-12-12T18:33:32.489Z,16.07
2022-12-12T18:36:02.056Z,16.40
2022-12-12T18:38:30.873Z,16.80
2022-12-12T18:41:00.753Z,17.50
2022-12-12T18:43:29.377Z,16.77
2022-12-12T18:45:58.334Z,16.47
2022-12-12T18:48:26.735Z,17.00
2022-12-12T18:50:55.201Z,17.13
2022-12-12T18:53:23.614Z,16.40
2022-12-12T18:55:51.969Z,18.70
2022-12-12T18:58:21.741Z,17.97
2022-12-12T19:00:50.172Z,19.03
2022-12-12T19:03:18.652Z,20.93
2022-12-12T19:05:47.069Z,21.03
2022-12-12T19:08:15.518Z,20.93
2022-12-12T19:10:46.417Z,19.47
2022-12-12T19:13:14.795Z,21.33
2022-12-12T19:15:44.549Z,20.17
2022-12-12T19:18:12.964Z,21.23
2022-12-12T19:20:41.368Z,22.03
2022-12-12T19:23:09.833Z,21.33
2022-12-12T19:25:42.801Z,23.27
2022-12-12T19:28:12.571Z,23.60
2022-12-12T19:30:41.635Z,22.60
2022-12-12T19:33:11.436Z,20.37
2022-12-12T19:35:39.948Z,21.90
2022-12-12T19:38:08.342Z,21.63
2022-12-12T19:40:36.793Z,21.30
2022-12-12T19:43:05.237Z,19.90
2022-12-12T19:45:33.690Z,19.73
2022-12-12T19:48:02.110Z,20.23
2022-12-12T19:50:31.980Z,19.50
2022-12-12T19:53:00.478Z,18.93
2022-12-12T19:55:28.958Z,110.97
2022-12-12T19:57:57.382Z,46.07
2022-12-12T20:00:26.048Z,32.87
2022-12-12T20:02:54.554Z,20.43
2022-12-12T20:05:23.000Z,16.23
2022-12-12T20:07:52.833Z,16.10
2022-12-12T20:10:21.385Z,16.37
2022-12-12T20:12:58.131Z,16.03
2022-12-12T20:15:27.069Z,19.27
2022-12-12T20:17:56.399Z,21.90
2022-12-12T20:20:24.763Z,18.83
2022-12-12T20:22:54.598Z,18.00
2022-12-12T20:25:22.992Z,16.43
2022-12-12T20:27:51.395Z,17.50
2022-12-12T20:30:19.941Z,20.10
2022-12-12T20:32:48.696Z,17.83
2022-12-12T20:35:17.169Z,17.50
2022-12-12T20:37:45.575Z,18.87
2022-12-12T20:40:15.890Z,17.60
2022-12-12T20:42:50.311Z,21.23
2022-12-12T20:45:22.649Z,25.13
2022-12-12T20:47:51.025Z,20.90
2022-12-12T20:50:19.407Z,22.40
2022-12-12T20:52:47.865Z,20.60
2022-12-12T20:55:17.961Z,21.27
2022-12-12T20:57:46.344Z,25.77
2022-12-12T21:00:15.465Z,30.87
2022-12-12T21:02:44.218Z,25.47
2022-12-12T21:05:12.999Z,22.33
2022-12-12T21:07:41.737Z,29.23
2022-12-12T21:10:10.695Z,78.17
2022-12-12T21:12:40.479Z,26.07
2022-12-12T21:15:09.485Z,24.27
2022-12-12T21:17:37.878Z,31.70
2022-12-12T21:20:07.137Z,28.80
2022-12-12T21:22:35.743Z,27.73
2022-12-12T21:25:04.167Z,20.03
2022-12-12T21:27:33.170Z,16.07
2022-12-12T21:30:02.939Z,17.97
2022-12-12T21:32:31.324Z,17.37
2022-12-12T21:34:59.710Z,16.87
2022-12-12T21:37:28.117Z,16.43
2022-12-12T21:39:56.510Z,17.43
2022-12-12T21:42:24.898Z,16.37
2022-12-12T21:44:53.280Z,17.90
2022-12-12T21:47:23.573Z,18.13
2022-12-12T21:49:52.012Z,18.83
2022-12-12T21:52:21.389Z,18.57
2022-12-12T21:54:49.801Z,20.00
2022-12-12T21:57:24.514Z,20.23
2022-12-12T21:59:53.295Z,19.43
2022-12-12T22:02:23.117Z,20.70
2022-12-12T22:04:51.497Z,21.80
2022-12-12T22:07:20.889Z,20.60
2022-12-12T22:10:10.540Z,20.87
2022-12-12T22:12:37.818Z,21.93
2022-12-12T22:15:06.788Z,19.43
2022-12-12T22:17:36.644Z,20.03
2022-12-12T22:20:05.282Z,19.30
2022-12-12T22:22:33.875Z,18.77
2022-12-12T22:25:02.382Z,17.63
2022-12-12T22:27:31.054Z,19.70
2022-12-12T22:29:59.532Z,18.87
2022-12-12T22:32:29.395Z,20.17
2022-12-12T22:34:59.459Z,17.90
2022-12-12T22:37:27.893Z,18.03
2022-12-12T22:39:56.307Z,18.43
2022-12-12T22:42:24.747Z,18.87
2022-12-12T22:44:53.450Z,17.03
2022-12-12T22:47:23.812Z,18.70
2022-12-12T22:49:52.223Z,55.03
2022-12-12T22:52:22.030Z,39.00
2022-12-12T22:54:50.427Z,18.90
2022-12-12T22:57:18.833Z,18.13
2022-12-12T22:59:47.211Z,19.80
2022-12-12T23:02:20.150Z,35.20
2022-12-12T23:04:51.734Z,20.63
2022-12-12T23:07:20.235Z,62.90
2022-12-12T23:09:53.462Z,25.47
2022-12-12T23:12:22.634Z,20.80
2022-12-12T23:14:51.004Z,20.13
2022-12-12T23:17:19.365Z,19.80
2022-12-12T23:19:47.830Z,21.33
2022-12-12T23:22:16.515Z,20.73
2022-12-12T23:24:45.010Z,21.23
2022-12-12T23:27:14.786Z,21.27
2022-12-12T23:29:43.301Z,34.90
2022-12-12T23:32:11.724Z,32.80
2022-12-12T23:34:40.124Z,32.40
2022-12-12T23:37:09.356Z,26.80
2022-12-12T23:39:37.767Z,23.23
2022-12-12T23:42:06.312Z,22.73
2022-12-12T23:44:36.098Z,21.80
2022-12-12T23:47:04.543Z,24.37
2022-12-12T23:49:33.020Z,24.53
2022-12-12T23:52:02.460Z,24.03
2022-12-12T23:54:32.563Z,23.43
2022-12-12T23:57:01.005Z,24.60
2022-12-12T23:59:29.640Z,23.53
